Plaster Rock, Canada
Current Conditions -  °F | °C
As of 12:54 AM on Tuesday 21 Oct 2014 (Local Time) from KCAR Reporting Station
Few Clouds Few Clouds  
Wind Chill: 32°   Ceiling: Unl
Heat Index: 32°   Visibility: 10mi
Dew Point: 25°   Wind: 0mph
Humidity: 75%   Direction: NA
Pressure: 29.94"   Gusts: NA
Location:  46.9°N, 67.38°W
Report Text: KCAR 210354Z AUTO 00000KT 10SM FEW120 00/M04 A2994 RMK AO2 SLP149 T00001039
Loading
Personal Weather Stations






























Interactive Weather Map
Tropical Storm Tracking
New forecast layout! Learn more

10-Day Weather Forecast

Advertisements
Track Severe Weather on mobile